Time,TemperatureF,DewpointF,PressureIn,WindDirection,WindDirectionDegrees,WindSpeedMPH,WindSpeedGustMPH,Humidity,HourlyPrecipIn,Conditions,Clouds,dailyrainin,SolarRadiationWatts/m^2,SoftwareType,DateUTC
2013-04-15 00:00:00,29.6,26.5,30.26,East,84,0.0,0.0,88,0.00,,---,0.00,0.00,VWS V14.01,2013-04-15 04:00:00,
2013-04-15 00:05:00,29.7,26.3,30.26,East,84,0.0,0.0,87,0.00,,---,0.00,0.00,VWS V14.01,2013-04-15 04:05:00,
2013-04-15 00:10:00,29.8,26.4,30.26,East,84,0.0,0.0,87,0.00,,---,0.00,0.00,VWS V14.01,2013-04-15 04:10:00,
2013-04-15 00:15:00,29.9,26.5,30.26,East,84,0.0,0.0,87,0.00,,---,0.00,0.00,VWS V14.01,2013-04-15 04:15:00,
2013-04-15 00:20:00,30.0,26.6,30.26,East,84,0.0,0.0,87,0.00,,---,0.00,0.00,VWS V14.01,2013-04-15 04:20:00,
2013-04-15 00:25:00,30.1,26.7,30.26,East,84,0.0,0.0,87,0.00,,---,0.00,0.00,VWS V14.01,2013-04-15 04:25:00,
2013-04-15 00:30:00,30.2,26.8,30.27,East,84,0.0,0.0,87,0.00,,---,0.00,0.00,VWS V14.01,2013-04-15 04:30:00,
2013-04-15 00:35:00,30.5,27.1,30.27,East,84,0.0,0.0,87,0.00,,---,0.00,0.00,VWS V14.01,2013-04-15 04:35:00,
2013-04-15 00:40:00,30.5,27.1,30.27,East,84,0.0,0.0,87,0.00,,---,0.00,0.00,VWS V14.01,2013-04-15 04:40:00,
2013-04-15 00:45:00,30.6,26.9,30.27,East,84,0.0,0.0,86,0.00,,---,0.00,0.00,VWS V14.01,2013-04-15 04:45:00,
2013-04-15 00:50:00,30.7,27.0,30.27,East,84,0.0,0.0,86,0.00,,---,0.00,0.00,VWS V14.01,2013-04-15 04:50:00,
2013-04-15 00:55:00,30.7,27.0,30.27,East,84,0.0,0.0,86,0.00,,---,0.00,0.00,VWS V14.01,2013-04-15 04:55:00,
2013-04-15 01:00:00,30.6,26.9,30.28,East,84,0.0,0.0,86,0.00,,---,0.00,0.00,VWS V14.01,2013-04-15 05:00:00,
2013-04-15 01:05:00,30.5,26.8,30.27,East,84,0.0,0.0,86,0.00,,---,0.00,0.00,VWS V14.01,2013-04-15 05:05:00,
2013-04-15 01:10:00,30.4,26.4,30.28,East,84,0.0,0.0,85,0.00,,---,0.00,0.00,VWS V14.01,2013-04-15 05:10:00,
2013-04-15 01:15:00,30.4,26.7,30.27,East,84,0.0,0.0,86,0.00,,---,0.00,0.00,VWS V14.01,2013-04-15 05:15:00,
2013-04-15 01:20:00,30.3,26.6,30.27,East,83,0.0,0.0,86,0.00,,---,0.00,0.00,VWS V14.01,2013-04-15 05:20:00,
2013-04-15 01:25:00,30.3,26.9,30.27,East,84,0.0,0.0,87,0.00,,---,0.00,0.00,VWS V14.01,2013-04-15 05:25:00,
2013-04-15 01:30:00,30.3,26.9,30.27,East,83,0.0,0.0,87,0.00,,---,0.00,0.00,VWS V14.01,2013-04-15 05:30:00,
2013-04-15 01:35:00,30.2,26.8,30.27,East,84,0.0,0.0,87,0.00,,---,0.00,0.00,VWS V14.01,2013-04-15 05:35:00,
2013-04-15 01:40:00,30.2,26.8,30.27,East,84,0.0,0.0,87,0.00,,---,0.00,0.00,VWS V14.01,2013-04-15 05:40:00,
2013-04-15 01:45:00,30.2,26.5,30.27,East,84,0.0,0.0,86,0.00,,---,0.00,0.00,VWS V14.01,2013-04-15 05:45:00,
2013-04-15 01:50:00,29.9,26.5,30.27,East,84,0.0,0.0,87,0.00,,---,0.00,0.00,VWS V14.01,2013-04-15 05:50:00,
2013-04-15 01:55:00,29.7,26.3,30.27,East,84,0.0,0.0,87,0.00,,---,0.00,0.00,VWS V14.01,2013-04-15 05:55:00,
2013-04-15 02:00:00,29.6,26.5,30.27,East,84,0.0,0.0,88,0.00,,---,0.00,0.00,VWS V14.01,2013-04-15 06:00:00,
2013-04-15 02:05:00,29.5,26.7,30.27,East,84,0.0,0.0,89,0.00,,---,0.00,0.00,VWS V14.01,2013-04-15 06:05:00,
2013-04-15 02:10:00,29.5,26.7,30.27,East,84,0.0,0.0,89,0.00,,---,0.00,0.00,VWS V14.01,2013-04-15 06:10:00,
2013-04-15 02:15:00,29.4,26.6,30.27,East,84,0.0,0.0,89,0.00,,---,0.00,0.00,VWS V14.01,2013-04-15 06:15:00,
2013-04-15 02:20:00,29.3,26.5,30.27,East,84,0.0,0.0,89,0.00,,---,0.00,0.00,VWS V14.01,2013-04-15 06:20:00,
2013-04-15 02:25:00,29.3,26.5,30.27,East,84,0.0,0.0,89,0.00,,---,0.00,0.00,VWS V14.01,2013-04-15 06:25:00,
2013-04-15 02:30:00,29.3,26.5,30.26,East,84,0.0,0.0,89,0.00,,---,0.00,0.00,VWS V14.01,2013-04-15 06:30:00,
2013-04-15 02:35:00,29.3,26.5,30.26,East,84,0.0,0.0,89,0.00,,---,0.00,0.00,VWS V14.01,2013-04-15 06:35:00,
2013-04-15 02:40:00,29.3,26.5,30.26,East,84,0.0,0.0,89,0.00,,---,0.00,0.00,VWS V14.01,2013-04-15 06:40:00,
2013-04-15 02:45:00,29.3,26.5,30.26,East,84,0.0,0.0,89,0.00,,---,0.00,0.00,VWS V14.01,2013-04-15 06:45:00,
2013-04-15 02:50:00,29.3,26.5,30.26,East,84,0.0,0.0,89,0.00,,---,0.00,0.00,VWS V14.01,2013-04-15 06:50:00,
2013-04-15 02:55:00,29.3,26.5,30.26,East,84,0.0,0.0,89,0.00,,---,0.00,0.00,VWS V14.01,2013-04-15 06:55:00,
2013-04-15 03:00:00,29.4,26.6,30.26,East,84,0.0,0.0,89,0.00,,---,0.00,0.00,VWS V14.01,2013-04-15 07:00:00,
2013-04-15 03:05:00,29.3,26.5,30.26,East,84,0.0,0.0,89,0.00,,---,0.00,0.00,VWS V14.01,2013-04-15 07:05:00,
2013-04-15 03:30:00,29.4,26.6,30.27,East,84,0.0,0.0,89,0.00,,---,0.00,0.00,VWS V14.01,2013-04-15 07:30:00,
2013-04-15 03:41:00,29.6,26.8,30.27,East,84,0.0,0.0,89,0.00,,---,0.00,0.00,VWS V14.01,2013-04-15 07:41:00,
2013-04-15 03:46:00,29.7,26.9,30.28,East,83,0.0,0.0,89,0.00,,---,0.00,0.00,VWS V14.01,2013-04-15 07:46:00,
2013-04-15 03:48:00,29.7,26.9,30.28,East,84,0.0,0.0,89,0.00,,---,0.00,0.00,VWS V14.01,2013-04-15 07:48:00,
2013-04-15 03:50:00,29.7,26.9,30.28,East,84,0.0,0.0,89,0.00,,---,0.00,0.00,VWS V14.01,2013-04-15 07:50:00,
2013-04-15 03:55:00,29.7,26.9,30.28,East,84,0.0,0.0,89,0.00,,---,0.00,0.00,VWS V14.01,2013-04-15 07:55:00,
2013-04-15 04:00:00,29.7,26.9,30.28,East,84,0.0,0.0,89,0.00,,---,0.00,0.00,VWS V14.01,2013-04-15 08:00:00,
2013-04-15 04:05:00,29.7,26.6,30.29,East,84,0.0,0.0,88,0.00,,---,0.00,0.00,VWS V14.01,2013-04-15 08:05:00,
2013-04-15 04:10:00,29.8,27.0,30.29,East,84,0.0,0.0,89,0.00,,---,0.00,0.00,VWS V14.01,2013-04-15 08:10:00,
2013-04-15 04:15:00,30.0,27.2,30.29,East,84,0.0,0.0,89,0.00,,---,0.00,0.00,VWS V14.01,2013-04-15 08:15:00,
2013-04-15 04:20:00,29.9,26.8,30.29,East,84,0.0,0.0,88,0.00,,---,0.00,0.00,VWS V14.01,2013-04-15 08:20:00,
2013-04-15 04:25:00,29.8,26.7,30.29,East,84,0.0,0.0,88,0.00,,---,0.00,0.00,VWS V14.01,2013-04-15 08:25:00,
2013-04-15 04:30:00,29.7,26.6,30.29,East,84,0.0,0.0,88,0.00,,---,0.00,0.00,VWS V14.01,2013-04-15 08:30:00,
2013-04-15 04:35:00,29.6,26.5,30.29,East,84,0.0,0.0,88,0.00,,---,0.00,0.00,VWS V14.01,2013-04-15 08:35:00,
2013-04-15 04:40:00,29.5,26.4,30.29,East,83,0.0,0.0,88,0.00,,---,0.00,0.00,VWS V14.01,2013-04-15 08:40:00,
2013-04-15 04:45:00,29.4,26.3,30.30,East,83,0.0,0.0,88,0.00,,---,0.00,0.00,VWS V14.01,2013-04-15 08:45:00,
2013-04-15 04:50:00,29.4,26.3,30.30,East,84,0.0,0.0,88,0.00,,---,0.00,0.00,VWS V14.01,2013-04-15 08:50:00,
2013-04-15 04:55:00,29.3,26.5,30.30,East,84,0.0,0.0,89,0.00,,---,0.00,0.00,VWS V14.01,2013-04-15 08:55:00,
2013-04-15 05:00:00,29.2,26.4,30.30,East,84,0.0,0.0,89,0.00,,---,0.00,0.00,VWS V14.01,2013-04-15 09:00:00,
2013-04-15 05:05:00,29.1,26.3,30.31,East,84,0.0,0.0,89,0.00,,---,0.00,0.00,VWS V14.01,2013-04-15 09:05:00,
2013-04-15 05:10:00,29.0,26.2,30.31,East,84,0.0,0.0,89,0.00,,---,0.00,0.00,VWS V14.01,2013-04-15 09:10:00,
2013-04-15 05:15:00,29.2,26.6,30.31,East,84,0.0,0.0,90,0.00,,---,0.00,0.00,VWS V14.01,2013-04-15 09:15:00,
2013-04-15 05:20:00,29.2,26.6,30.31,East,84,0.0,0.0,90,0.00,,---,0.00,0.00,VWS V14.01,2013-04-15 09:20:00,
2013-04-15 05:25:00,29.3,26.7,30.32,East,84,0.0,0.0,90,0.00,,---,0.00,0.00,VWS V14.01,2013-04-15 09:25:00,
2013-04-15 05:30:00,29.3,26.7,30.32,East,84,0.0,0.0,90,0.00,,---,0.00,0.00,VWS V14.01,2013-04-15 09:30:00,
2013-04-15 05:35:00,29.4,26.8,30.33,East,84,0.0,0.0,90,0.00,,---,0.00,0.00,VWS V14.01,2013-04-15 09:35:00,
2013-04-15 05:40:00,29.3,26.7,30.33,East,84,0.0,0.0,90,0.00,,---,0.00,0.00,VWS V14.01,2013-04-15 09:40:00,
2013-04-15 05:45:00,29.3,26.7,30.34,East,83,0.0,0.0,90,0.00,,---,0.00,0.00,VWS V14.01,2013-04-15 09:45:00,
2013-04-15 05:50:00,29.2,26.6,30.34,East,84,0.0,0.0,90,0.00,,---,0.00,0.00,VWS V14.01,2013-04-15 09:50:00,
2013-04-15 05:55:00,29.2,26.6,30.34,East,84,0.0,0.0,90,0.00,,---,0.00,0.00,VWS V14.01,2013-04-15 09:55:00,
2013-04-15 06:00:00,29.3,26.7,30.34,East,84,0.0,0.0,90,0.00,,---,0.00,0.00,VWS V14.01,2013-04-15 10:00:00,
2013-04-15 06:05:00,29.5,26.9,30.34,East,84,0.0,0.0,90,0.00,,---,0.00,5.00,VWS V14.01,2013-04-15 10:05:00,
2013-04-15 06:10:00,29.6,27.0,30.35,East,83,0.0,0.0,90,0.00,,---,0.00,5.00,VWS V14.01,2013-04-15 10:10:00,
2013-04-15 06:15:00,29.6,27.0,30.35,East,84,0.0,0.0,90,0.00,,---,0.00,5.00,VWS V14.01,2013-04-15 10:15:00,
2013-04-15 06:20:00,29.8,27.2,30.35,East,84,0.0,0.0,90,0.00,,---,0.00,0.00,VWS V14.01,2013-04-15 10:20:00,
2013-04-15 06:25:00,29.9,27.3,30.36,East,84,0.0,0.0,90,0.00,,---,0.00,7.00,VWS V14.01,2013-04-15 10:25:00,
2013-04-15 06:30:00,30.0,27.4,30.36,East,83,0.0,0.0,90,0.00,,---,0.00,11.00,VWS V14.01,2013-04-15 10:30:00,
2013-04-15 06:35:00,30.1,27.5,30.36,East,84,0.0,0.0,90,0.00,,---,0.00,14.00,VWS V14.01,2013-04-15 10:35:00,
2013-04-15 06:40:00,30.1,27.5,30.36,East,84,0.0,0.0,90,0.00,,---,0.00,19.00,VWS V14.01,2013-04-15 10:40:00,
2013-04-15 06:45:00,30.3,27.7,30.37,East,84,0.0,0.0,90,0.00,,---,0.00,26.00,VWS V14.01,2013-04-15 10:45:00,
2013-04-15 06:50:00,30.4,27.8,30.37,East,84,0.0,0.0,90,0.00,,---,0.00,33.00,VWS V14.01,2013-04-15 10:50:00,
2013-04-15 06:55:00,30.4,27.8,30.37,East,84,0.0,0.0,90,0.00,,---,0.00,40.00,VWS V14.01,2013-04-15 10:55:00,
2013-04-15 07:00:00,30.6,28.0,30.37,East,84,0.0,0.0,90,0.00,,---,0.00,49.00,VWS V14.01,2013-04-15 11:00:00,
2013-04-15 07:05:00,30.7,28.1,30.38,East,84,0.0,0.0,90,0.00,,---,0.00,56.00,VWS V14.01,2013-04-15 11:05:00,
2013-04-15 07:10:00,30.8,28.5,30.37,East,84,0.0,0.0,91,0.00,,---,0.00,62.00,VWS V14.01,2013-04-15 11:10:00,
2013-04-15 07:15:00,31.0,28.4,30.38,East,84,0.0,0.0,90,0.00,,---,0.00,69.00,VWS V14.01,2013-04-15 11:15:00,
2013-04-15 07:20:00,31.2,28.6,30.38,East,84,0.0,0.0,90,0.00,,---,0.00,77.00,VWS V14.01,2013-04-15 11:20:00,
2013-04-15 07:25:00,31.5,28.9,30.38,East,84,0.0,0.0,90,0.00,,---,0.00,90.00,VWS V14.01,2013-04-15 11:25:00,
2013-04-15 07:30:00,31.8,29.2,30.37,East,84,0.0,0.0,90,0.00,,---,0.00,113.00,VWS V14.01,2013-04-15 11:30:00,
2013-04-15 07:35:00,32.2,29.6,30.37,East,84,0.0,0.0,90,0.00,,---,0.00,128.00,VWS V14.01,2013-04-15 11:35:00,
2013-04-15 07:40:00,33.0,30.1,30.37,East,84,0.0,0.0,89,0.00,,---,0.00,137.00,VWS V14.01,2013-04-15 11:40:00,
2013-04-15 07:45:00,33.9,30.2,30.38,East,84,0.0,0.0,86,0.00,,---,0.00,148.00,VWS V14.01,2013-04-15 11:45:00,
2013-04-15 07:50:00,34.9,30.3,30.38,East,84,0.0,0.0,83,0.00,,---,0.00,158.00,VWS V14.01,2013-04-15 11:50:00,
2013-04-15 07:55:00,35.5,30.0,30.38,NE,55,0.0,2.0,80,0.00,,---,0.00,169.00,VWS V14.01,2013-04-15 11:55:00,
2013-04-15 08:00:00,36.1,30.2,30.38,NE,55,0.0,2.0,79,0.00,,---,0.00,171.00,VWS V14.01,2013-04-15 12:00:00,
2013-04-15 08:05:00,36.6,30.7,30.38,NE,55,0.0,0.0,79,0.00,,---,0.00,179.00,VWS V14.01,2013-04-15 12:05:00,
2013-04-15 08:10:00,36.9,30.4,30.38,NE,34,0.0,4.0,77,0.00,,---,0.00,181.00,VWS V14.01,2013-04-15 12:10:00,
2013-04-15 08:15:00,37.2,30.7,30.38,NE,34,0.0,4.0,77,0.00,,---,0.00,197.00,VWS V14.01,2013-04-15 12:15:00,
2013-04-15 08:20:00,37.7,31.1,30.38,NE,34,0.0,4.0,77,0.00,,---,0.00,211.00,VWS V14.01,2013-04-15 12:20:00,
2013-04-15 08:25:00,38.1,30.2,30.38,NE,34,0.0,4.0,73,0.00,,---,0.00,167.00,VWS V14.01,2013-04-15 12:25:00,
2013-04-15 08:30:00,38.3,30.4,30.39,NE,34,0.0,4.0,73,0.00,,---,0.00,167.00,VWS V14.01,2013-04-15 12:30:00,
2013-04-15 08:35:00,38.6,30.7,30.39,NE,34,0.0,0.0,73,0.00,,---,0.00,132.00,VWS V14.01,2013-04-15 12:35:00,
2013-04-15 08:40:00,38.8,30.9,30.39,NE,34,0.0,1.0,73,0.00,,---,0.00,91.00,VWS V14.01,2013-04-15 12:40:00,
2013-04-15 08:45:00,38.9,30.7,30.39,NE,34,0.0,1.0,72,0.00,,---,0.00,76.00,VWS V14.01,2013-04-15 12:45:00,
2013-04-15 08:50:00,38.9,31.0,30.39,NE,34,0.0,1.0,73,0.00,,---,0.00,74.00,VWS V14.01,2013-04-15 12:50:00,
2013-04-15 08:55:00,39.0,30.8,30.39,NE,34,0.0,1.0,72,0.00,,---,0.00,83.00,VWS V14.01,2013-04-15 12:55:00,
2013-04-15 09:00:00,39.1,30.9,30.39,NE,34,0.0,1.0,72,0.00,,---,0.00,91.00,VWS V14.01,2013-04-15 13:00:00,
2013-04-15 09:05:00,39.3,30.7,30.40,NE,34,0.0,0.0,71,0.00,,---,0.00,118.00,VWS V14.01,2013-04-15 13:05:00,
2013-04-15 09:10:00,39.5,30.9,30.40,NE,34,0.0,0.0,71,0.00,,---,0.00,167.00,VWS V14.01,2013-04-15 13:10:00,
2013-04-15 09:15:00,39.9,31.6,30.40,NE,34,0.0,0.0,72,0.00,,---,0.00,183.00,VWS V14.01,2013-04-15 13:15:00,
2013-04-15 09:20:00,40.3,31.0,30.40,NE,34,0.0,0.0,69,0.00,,---,0.00,200.00,VWS V14.01,2013-04-15 13:20:00,
2013-04-15 09:25:00,40.6,31.2,30.40,NE,34,0.0,0.0,69,0.00,,---,0.00,244.00,VWS V14.01,2013-04-15 13:25:00,
2013-04-15 09:30:00,41.0,30.9,30.40,NE,34,0.0,0.0,67,0.00,,---,0.00,257.00,VWS V14.01,2013-04-15 13:30:00,
2013-04-15 09:35:00,41.4,31.6,30.40,NE,34,0.0,2.0,68,0.00,,---,0.00,295.00,VWS V14.01,2013-04-15 13:35:00,
2013-04-15 09:40:00,41.8,32.4,30.40,SSE,153,0.0,2.0,69,0.00,,---,0.00,339.00,VWS V14.01,2013-04-15 13:40:00,
2013-04-15 09:45:00,42.2,32.0,30.40,SSE,153,0.0,2.0,67,0.00,,---,0.00,369.00,VWS V14.01,2013-04-15 13:45:00,
2013-04-15 09:50:00,42.6,31.7,30.40,SSE,153,0.0,3.0,65,0.00,,---,0.00,387.00,VWS V14.01,2013-04-15 13:50:00,
2013-04-15 09:55:00,43.1,31.8,30.40,SSE,153,0.0,3.0,64,0.00,,---,0.00,404.00,VWS V14.01,2013-04-15 13:55:00,
2013-04-15 10:00:00,43.9,33.3,30.40,SSE,153,0.0,3.0,66,0.00,,---,0.00,454.00,VWS V14.01,2013-04-15 14:00:00,
2013-04-15 10:05:00,44.7,34.0,30.40,SSE,153,0.0,1.0,66,0.00,,---,0.00,499.00,VWS V14.01,2013-04-15 14:05:00,
2013-04-15 10:10:00,45.6,33.3,30.40,SSE,153,0.0,3.0,62,0.00,,---,0.00,455.00,VWS V14.01,2013-04-15 14:10:00,
2013-04-15 10:16:00,46.1,32.6,30.40,East,96,0.0,5.0,59,0.00,,---,0.00,499.00,VWS V14.01,2013-04-15 14:16:00,
2013-04-15 10:21:00,46.3,34.0,30.40,East,96,0.0,5.0,62,0.00,,---,0.00,485.00,VWS V14.01,2013-04-15 14:21:00,
2013-04-15 10:26:00,46.7,33.6,30.40,East,98,5.0,5.0,60,0.00,,---,0.00,499.00,VWS V14.01,2013-04-15 14:26:00,
2013-04-15 10:30:00,47.7,34.1,30.40,ESE,113,0.0,5.0,59,0.00,,---,0.00,538.00,VWS V14.01,2013-04-15 14:30:00,
2013-04-15 10:31:00,47.3,33.3,30.40,ESE,113,1.0,5.0,58,0.00,,---,0.00,534.00,VWS V14.01,2013-04-15 14:31:00,
2013-04-15 10:36:00,48.0,34.4,30.40,ESE,113,0.0,0.0,59,0.00,,---,0.00,533.00,VWS V14.01,2013-04-15 14:36:00,
2013-04-15 10:41:00,48.5,32.6,30.39,SE,134,0.0,0.0,54,0.00,,---,0.00,594.00,VWS V14.01,2013-04-15 14:41:00,
2013-04-15 10:46:00,49.0,32.6,30.39,SE,138,0.0,5.0,53,0.00,,---,0.00,650.00,VWS V14.01,2013-04-15 14:46:00,
2013-04-15 10:51:00,49.1,31.8,30.39,NE,50,2.0,5.0,51,0.00,,---,0.00,670.00,VWS V14.01,2013-04-15 14:51:00,
2013-04-15 10:57:00,49.7,33.8,30.38,SE,136,6.0,6.0,54,0.00,,---,0.00,647.00,VWS V14.01,2013-04-15 14:57:00,
2013-04-15 11:00:00,50.1,33.2,30.38,ESE,116,0.0,7.0,52,0.00,,---,0.00,654.00,VWS V14.01,2013-04-15 15:00:00,
2013-04-15 11:02:00,49.9,33.5,30.38,South,188,0.0,6.0,53,0.00,,---,0.00,617.00,VWS V14.01,2013-04-15 15:02:00,
2013-04-15 11:07:00,50.3,34.3,30.38,SSE,163,3.0,4.0,54,0.00,,---,0.00,671.00,VWS V14.01,2013-04-15 15:07:00,
2013-04-15 11:12:00,50.7,34.7,30.38,SSE,163,0.0,4.0,54,0.00,,---,0.00,654.00,VWS V14.01,2013-04-15 15:12:00,
2013-04-15 11:17:00,51.6,36.0,30.38,NE,43,4.0,7.0,55,0.00,,---,0.00,629.00,VWS V14.01,2013-04-15 15:17:00,
2013-04-15 11:22:00,51.9,33.4,30.37,ENE,66,5.0,7.0,49,0.00,,---,0.00,621.00,VWS V14.01,2013-04-15 15:22:00,
2013-04-15 11:27:00,51.8,34.3,30.37,NE,55,0.0,7.0,51,0.00,,---,0.00,675.00,VWS V14.01,2013-04-15 15:27:00,
2013-04-15 11:30:00,52.3,34.2,30.37,East,80,0.0,7.0,50,0.00,,---,0.00,554.00,VWS V14.01,2013-04-15 15:30:00,
2013-04-15 11:32:00,52.2,32.6,30.37,ESE,123,0.0,7.0,47,0.00,,---,0.00,596.00,VWS V14.01,2013-04-15 15:32:00,
2013-04-15 11:37:00,52.3,33.2,30.37,East,94,0.0,5.0,48,0.00,,---,0.00,561.00,VWS V14.01,2013-04-15 15:37:00,
2013-04-15 11:42:00,52.2,33.1,30.37,ESE,117,0.0,5.0,48,0.00,,---,0.00,601.00,VWS V14.01,2013-04-15 15:42:00,
2013-04-15 11:47:00,51.9,31.2,30.36,WNW,289,0.0,5.0,45,0.00,,---,0.00,599.00,VWS V14.01,2013-04-15 15:47:00,
2013-04-15 11:52:00,51.9,30.7,30.37,WNW,290,3.0,5.0,44,0.00,,---,0.00,548.00,VWS V14.01,2013-04-15 15:52:00,
2013-04-15 11:57:00,52.5,33.4,30.36,SE,129,1.0,6.0,48,0.00,,---,0.00,534.00,VWS V14.01,2013-04-15 15:57:00,
2013-04-15 12:00:00,52.6,33.5,30.36,South,169,3.0,6.0,48,0.00,,---,0.00,503.00,VWS V14.01,2013-04-15 16:00:00,
2013-04-15 12:02:00,52.6,31.9,30.37,South,182,0.0,6.0,45,0.00,,---,0.00,478.00,VWS V14.01,2013-04-15 16:02:00,
2013-04-15 12:07:00,52.5,31.8,30.36,WSW,247,0.0,4.0,45,0.00,,---,0.00,503.00,VWS V14.01,2013-04-15 16:07:00,
2013-04-15 12:12:00,52.5,31.8,30.36,ESE,113,2.0,5.0,45,0.00,,---,0.00,468.00,VWS V14.01,2013-04-15 16:12:00,
2013-04-15 12:18:00,52.8,32.1,30.36,SE,135,6.0,6.0,45,0.00,,---,0.00,557.00,VWS V14.01,2013-04-15 16:18:00,
2013-04-15 12:23:00,52.9,31.6,30.36,West,269,1.0,6.0,44,0.00,,---,0.00,601.00,VWS V14.01,2013-04-15 16:23:00,
2013-04-15 12:28:00,52.7,31.4,30.36,SW,232,0.0,6.0,44,0.00,,---,0.00,515.00,VWS V14.01,2013-04-15 16:28:00,
2013-04-15 12:30:00,52.6,32.4,30.35,WSW,248,0.0,6.0,46,0.00,,---,0.00,496.00,VWS V14.01,2013-04-15 16:30:00,
2013-04-15 12:33:00,52.6,31.9,30.36,WSW,248,2.0,6.0,45,0.00,,---,0.00,475.00,VWS V14.01,2013-04-15 16:33:00,
2013-04-15 12:38:00,52.7,32.0,30.35,South,182,0.0,4.0,45,0.00,,---,0.00,487.00,VWS V14.01,2013-04-15 16:38:00,
2013-04-15 12:43:00,52.9,32.2,30.35,West,259,0.0,5.0,45,0.00,,---,0.00,529.00,VWS V14.01,2013-04-15 16:43:00,
2013-04-15 12:48:00,53.3,34.1,30.35,SE,134,2.0,5.0,48,0.00,,---,0.00,573.00,VWS V14.01,2013-04-15 16:48:00,
2013-04-15 12:53:00,54.1,35.9,30.34,WSW,240,0.0,8.0,50,0.00,,---,0.00,570.00,VWS V14.01,2013-04-15 16:53:00,
2013-04-15 12:58:00,54.4,33.5,30.34,WSW,246,6.0,8.0,45,0.00,,---,0.00,487.00,VWS V14.01,2013-04-15 16:58:00,
2013-04-15 13:00:00,54.2,33.9,30.34,WSW,249,1.0,8.0,46,0.00,,---,0.00,478.00,VWS V14.01,2013-04-15 17:00:00,
2013-04-15 13:03:00,54.2,34.4,30.34,West,275,0.0,8.0,47,0.00,,---,0.00,464.00,VWS V14.01,2013-04-15 17:03:00,
2013-04-15 13:08:00,54.1,33.2,30.34,SSW,209,0.0,4.0,45,0.00,,---,0.00,461.00,VWS V14.01,2013-04-15 17:08:00,
2013-04-15 13:13:00,54.0,34.2,30.34,WSW,255,3.0,5.0,47,0.00,,---,0.00,559.00,VWS V14.01,2013-04-15 17:13:00,
2013-04-15 13:18:00,54.4,34.1,30.34,SW,234,0.0,5.0,46,0.00,,---,0.00,555.00,VWS V14.01,2013-04-15 17:18:00,
2013-04-15 13:21:00,54.7,34.3,30.34,WNW,285,2.0,6.0,46,0.00,,---,0.00,526.00,VWS V14.01,2013-04-15 17:21:00,
2013-04-15 13:30:00,54.9,33.4,30.34,SW,235,3.0,6.0,44,0.00,,---,0.00,710.00,VWS V14.01,2013-04-15 17:30:00,
2013-04-15 13:31:00,54.8,35.0,30.34,WSW,257,3.0,6.0,47,0.00,,---,0.00,526.00,VWS V14.01,2013-04-15 17:31:00,
2013-04-15 13:36:00,55.0,34.1,30.34,WSW,242,0.0,6.0,45,0.00,,---,0.00,795.00,VWS V14.01,2013-04-15 17:36:00,
2013-04-15 13:41:00,55.2,35.3,30.34,SW,236,0.0,6.0,47,0.00,,---,0.00,898.00,VWS V14.01,2013-04-15 17:41:00,
2013-04-15 13:46:00,56.1,35.6,30.34,SSE,148,0.0,6.0,46,0.00,,---,0.00,921.00,VWS V14.01,2013-04-15 17:46:00,
2013-04-15 13:51:00,56.6,33.8,30.34,WNW,298,3.0,6.0,42,0.00,,---,0.00,1146.00,VWS V14.01,2013-04-15 17:51:00,
2013-04-15 13:57:00,57.2,34.9,30.34,SW,227,0.0,6.0,43,0.00,,---,0.00,450.00,VWS V14.01,2013-04-15 17:57:00,
2013-04-15 14:00:00,56.5,34.3,30.34,WSW,240,0.0,6.0,43,0.00,,---,0.00,306.00,VWS V14.01,2013-04-15 18:00:00,
2013-04-15 14:02:00,56.8,35.7,30.34,WSW,240,5.0,6.0,45,0.00,,---,0.00,346.00,VWS V14.01,2013-04-15 18:02:00,
2013-04-15 14:07:00,56.4,35.3,30.33,WSW,241,4.0,4.0,45,0.00,,---,0.00,287.00,VWS V14.01,2013-04-15 18:07:00,
2013-04-15 14:12:00,56.1,34.5,30.33,WSW,252,3.0,5.0,44,0.00,,---,0.00,265.00,VWS V14.01,2013-04-15 18:12:00,
2013-04-15 14:17:00,55.8,34.2,30.33,WNW,282,0.0,5.0,44,0.00,,---,0.00,246.00,VWS V14.01,2013-04-15 18:17:00,
2013-04-15 14:22:00,55.7,35.3,30.33,WSW,240,0.0,5.0,46,0.00,,---,0.00,209.00,VWS V14.01,2013-04-15 18:22:00,
2013-04-15 14:27:00,55.4,33.9,30.32,WSW,240,4.0,7.0,44,0.00,,---,0.00,213.00,VWS V14.01,2013-04-15 18:27:00,
2013-04-15 14:29:00,55.3,34.3,30.32,West,274,0.0,7.0,45,0.00,,---,0.00,214.00,VWS V14.01,2013-04-15 18:29:00,
2013-04-15 14:30:00,55.4,35.5,30.32,SSE,147,1.0,7.0,47,0.00,,---,0.00,251.00,VWS V14.01,2013-04-15 18:30:00,
2013-04-15 14:34:00,55.3,35.4,30.32,West,267,0.0,7.0,47,0.00,,---,0.00,251.00,VWS V14.01,2013-04-15 18:34:00,
2013-04-15 14:39:00,55.5,34.5,30.32,WSW,257,4.0,4.0,45,0.00,,---,0.00,302.00,VWS V14.01,2013-04-15 18:39:00,
2013-04-15 14:44:00,55.5,34.0,30.31,WSW,242,4.0,4.0,44,0.00,,---,0.00,334.00,VWS V14.01,2013-04-15 18:44:00,
2013-04-15 14:49:00,55.7,34.7,30.32,WSW,246,3.0,5.0,45,0.00,,---,0.00,378.00,VWS V14.01,2013-04-15 18:49:00,
2013-04-15 14:54:00,55.9,34.9,30.31,West,270,3.0,6.0,45,0.00,,---,0.00,476.00,VWS V14.01,2013-04-15 18:54:00,
2013-04-15 14:59:00,56.1,34.5,30.31,WSW,248,0.0,6.0,44,0.00,,---,0.00,432.00,VWS V14.01,2013-04-15 18:59:00,
2013-04-15 15:00:00,56.4,34.8,30.31,West,271,3.0,6.0,44,0.00,,---,0.00,446.00,VWS V14.01,2013-04-15 19:00:00,
2013-04-15 15:04:00,56.4,35.3,30.31,WSW,257,2.0,6.0,45,0.00,,---,0.00,429.00,VWS V14.01,2013-04-15 19:04:00,
2013-04-15 15:09:00,56.6,35.0,30.31,SSW,208,2.0,11.0,44,0.00,,---,0.00,499.00,VWS V14.01,2013-04-15 19:09:00,
2013-04-15 15:14:00,57.3,36.2,30.30,South,179,0.0,11.0,45,0.00,,---,0.00,617.00,VWS V14.01,2013-04-15 19:14:00,
2013-04-15 15:19:00,58.2,37.0,30.30,WNW,292,3.0,11.0,45,0.00,,---,0.00,580.00,VWS V14.01,2013-04-15 19:19:00,
2013-04-15 15:24:00,58.5,35.5,30.31,WSW,250,6.0,11.0,42,0.00,,---,0.00,636.00,VWS V14.01,2013-04-15 19:24:00,
2013-04-15 15:29:00,58.6,35.6,30.30,NW,319,2.0,11.0,42,0.00,,---,0.00,874.00,VWS V14.01,2013-04-15 19:29:00,
2013-04-15 15:30:00,59.3,36.8,30.30,WSW,248,2.0,11.0,43,0.00,,---,0.00,766.00,VWS V14.01,2013-04-15 19:30:00,
2013-04-15 15:34:00,59.2,37.3,30.30,WSW,242,3.0,11.0,44,0.00,,---,0.00,772.00,VWS V14.01,2013-04-15 19:34:00,
2013-04-15 15:39:00,59.1,37.8,30.30,SW,227,3.0,7.0,45,0.00,,---,0.00,731.00,VWS V14.01,2013-04-15 19:39:00,
2013-04-15 15:44:00,59.3,37.4,30.30,SW,215,0.0,8.0,44,0.00,,---,0.00,673.00,VWS V14.01,2013-04-15 19:44:00,
2013-04-15 15:49:00,59.6,37.1,30.30,SSW,210,3.0,8.0,43,0.00,,---,0.00,635.00,VWS V14.01,2013-04-15 19:49:00,
2013-04-15 15:54:00,59.2,36.7,30.30,South,189,4.0,8.0,43,0.00,,---,0.00,605.00,VWS V14.01,2013-04-15 19:54:00,
2013-04-15 15:57:00,59.2,36.1,30.30,WSW,248,5.0,8.0,42,0.00,,---,0.00,591.00,VWS V14.01,2013-04-15 19:57:00,
2013-04-15 16:00:00,59.3,37.4,30.29,WNW,303,0.0,8.0,44,0.00,,---,0.00,568.00,VWS V14.01,2013-04-15 20:00:00,
2013-04-15 16:01:00,59.1,36.7,30.29,WSW,250,5.0,8.0,43,0.00,,---,0.00,578.00,VWS V14.01,2013-04-15 20:01:00,
2013-04-15 16:02:00,59.1,36.7,30.29,WSW,250,2.0,8.0,43,0.00,,---,0.00,577.00,VWS V14.01,2013-04-15 20:02:00,
2013-04-15 16:07:00,59.6,36.5,30.29,SSE,165,3.0,10.0,42,0.00,,---,0.00,563.00,VWS V14.01,2013-04-15 20:07:00,
2013-04-15 16:12:00,59.5,36.4,30.29,SW,219,2.0,10.0,42,0.00,,---,0.00,550.00,VWS V14.01,2013-04-15 20:12:00,
2013-04-15 16:17:00,59.8,37.3,30.28,SW,214,3.0,10.0,43,0.00,,---,0.00,536.00,VWS V14.01,2013-04-15 20:17:00,
2013-04-15 16:22:00,59.9,38.0,30.29,SSE,165,0.0,10.0,44,0.00,,---,0.00,522.00,VWS V14.01,2013-04-15 20:22:00,
2013-04-15 16:27:00,60.3,37.1,30.28,WSW,240,4.0,10.0,42,0.00,,---,0.00,508.00,VWS V14.01,2013-04-15 20:27:00,
2013-04-15 16:30:00,60.3,37.7,30.28,SW,228,0.0,10.0,43,0.00,,---,0.00,489.00,VWS V14.01,2013-04-15 20:30:00,
2013-04-15 16:32:00,60.2,38.2,30.28,SW,234,4.0,10.0,44,0.00,,---,0.00,496.00,VWS V14.01,2013-04-15 20:32:00,
2013-04-15 16:37:00,60.3,37.7,30.28,West,275,0.0,2.0,43,0.00,,---,0.00,482.00,VWS V14.01,2013-04-15 20:37:00,
2013-04-15 16:42:00,60.7,38.1,30.28,SSE,147,0.0,3.0,43,0.00,,---,0.00,462.00,VWS V14.01,2013-04-15 20:42:00,
2013-04-15 16:47:00,61.0,38.4,30.28,West,261,0.0,5.0,43,0.00,,---,0.00,448.00,VWS V14.01,2013-04-15 20:47:00,
2013-04-15 16:52:00,60.7,37.5,30.28,South,190,0.0,5.0,42,0.00,,---,0.00,436.00,VWS V14.01,2013-04-15 20:52:00,
2013-04-15 16:57:00,60.6,37.4,30.29,West,259,4.0,5.0,42,0.00,,---,0.00,422.00,VWS V14.01,2013-04-15 20:57:00,
2013-04-15 17:00:00,60.2,37.6,30.29,WSW,239,0.0,5.0,43,0.00,,---,0.00,396.00,VWS V14.01,2013-04-15 21:00:00,
2013-04-15 17:02:00,60.2,37.0,30.29,WSW,239,0.0,5.0,42,0.00,,---,0.00,401.00,VWS V14.01,2013-04-15 21:02:00,
2013-04-15 17:07:00,60.3,37.7,30.29,WSW,239,1.0,1.0,43,0.00,,---,0.00,383.00,VWS V14.01,2013-04-15 21:07:00,
2013-04-15 17:12:00,60.2,37.6,30.29,SSW,192,0.0,5.0,43,0.00,,---,0.00,373.00,VWS V14.01,2013-04-15 21:12:00,
2013-04-15 17:17:00,60.2,36.4,30.29,SW,215,0.0,5.0,41,0.00,,---,0.00,360.00,VWS V14.01,2013-04-15 21:17:00,
2013-04-15 17:22:00,60.3,37.1,30.29,NNW,330,1.0,6.0,42,0.00,,---,0.00,341.00,VWS V14.01,2013-04-15 21:22:00,
2013-04-15 17:27:00,60.1,37.5,30.29,SSW,202,4.0,6.0,43,0.00,,---,0.00,320.00,VWS V14.01,2013-04-15 21:27:00,
2013-04-15 17:30:00,59.6,37.1,30.29,SSW,203,5.0,6.0,43,0.00,,---,0.00,302.00,VWS V14.01,2013-04-15 21:30:00,
2013-04-15 17:32:00,59.7,36.6,30.29,SW,226,0.0,6.0,42,0.00,,---,0.00,285.00,VWS V14.01,2013-04-15 21:32:00,
2013-04-15 17:37:00,59.5,36.4,30.29,South,185,0.0,5.0,42,0.00,,---,0.00,299.00,VWS V14.01,2013-04-15 21:37:00,
2013-04-15 17:42:00,59.5,37.0,30.30,NNW,346,1.0,7.0,43,0.00,,---,0.00,130.00,VWS V14.01,2013-04-15 21:42:00,
2013-04-15 17:47:00,59.2,36.7,30.30,SSW,193,1.0,7.0,43,0.00,,---,0.00,98.00,VWS V14.01,2013-04-15 21:47:00,
2013-04-15 17:52:00,58.9,37.6,30.30,East,80,2.0,7.0,45,0.00,,---,0.00,77.00,VWS V14.01,2013-04-15 21:52:00,
2013-04-15 17:57:00,58.7,36.9,30.30,SSW,209,0.0,7.0,44,0.00,,---,0.00,62.00,VWS V14.01,2013-04-15 21:57:00,
2013-04-15 18:00:00,58.4,36.6,30.31,WSW,249,0.0,7.0,44,0.00,,---,0.00,53.00,VWS V14.01,2013-04-15 22:00:00,
2013-04-15 18:02:00,58.5,36.7,30.30,SE,138,0.0,7.0,44,0.00,,---,0.00,51.00,VWS V14.01,2013-04-15 22:02:00,
2013-04-15 18:07:00,58.2,37.0,30.31,WSW,249,0.0,2.0,45,0.00,,---,0.00,54.00,VWS V14.01,2013-04-15 22:07:00,
2013-04-15 18:12:00,58.1,36.9,30.31,WSW,256,0.0,2.0,45,0.00,,---,0.00,58.00,VWS V14.01,2013-04-15 22:12:00,
2013-04-15 18:17:00,58.0,37.4,30.31,WSW,244,0.0,4.0,46,0.00,,---,0.00,56.00,VWS V14.01,2013-04-15 22:17:00,
2013-04-15 18:22:00,57.9,37.3,30.31,WSW,248,1.0,4.0,46,0.00,,---,0.00,63.00,VWS V14.01,2013-04-15 22:22:00,
2013-04-15 18:27:00,57.8,36.6,30.31,SW,232,2.0,5.0,45,0.00,,---,0.00,56.00,VWS V14.01,2013-04-15 22:27:00,
2013-04-15 18:30:00,57.7,36.5,30.31,SSW,200,0.0,6.0,45,0.00,,---,0.00,62.00,VWS V14.01,2013-04-15 22:30:00,
2013-04-15 18:32:00,57.8,37.2,30.31,West,277,3.0,6.0,46,0.00,,---,0.00,56.00,VWS V14.01,2013-04-15 22:32:00,
2013-04-15 18:37:00,57.7,37.1,30.31,SSW,200,0.0,2.0,46,0.00,,---,0.00,58.00,VWS V14.01,2013-04-15 22:37:00,
2013-04-15 18:42:00,57.6,37.0,30.31,South,185,0.0,2.0,46,0.00,,---,0.00,42.00,VWS V14.01,2013-04-15 22:42:00,
2013-04-15 18:47:00,57.5,36.9,30.30,NE,55,0.0,2.0,46,0.00,,---,0.00,30.00,VWS V14.01,2013-04-15 22:47:00,
2013-04-15 18:52:00,57.3,36.7,30.30,SSE,163,0.0,4.0,46,0.00,,---,0.00,25.00,VWS V14.01,2013-04-15 22:52:00,
2013-04-15 18:57:00,57.1,36.5,30.30,SSW,192,0.0,4.0,46,0.00,,---,0.00,21.00,VWS V14.01,2013-04-15 22:57:00,
2013-04-15 19:00:00,56.8,36.8,30.30,SW,227,0.0,4.0,47,0.00,,---,0.00,18.00,VWS V14.01,2013-04-15 23:00:00,
2013-04-15 19:02:00,56.9,36.9,30.30,SW,227,0.0,4.0,47,0.00,,---,0.00,19.00,VWS V14.01,2013-04-15 23:02:00,
2013-04-15 19:07:00,56.7,36.7,30.30,SW,227,0.0,0.0,47,0.00,,---,0.00,16.00,VWS V14.01,2013-04-15 23:07:00,
2013-04-15 19:12:00,56.4,36.4,30.30,SW,227,0.0,0.0,47,0.00,,---,0.00,14.00,VWS V14.01,2013-04-15 23:12:00,
2013-04-15 19:17:00,56.1,36.7,30.30,SW,227,0.0,0.0,48,0.00,,---,0.00,11.00,VWS V14.01,2013-04-15 23:17:00,
2013-04-15 19:22:00,55.9,36.5,30.30,SW,227,0.0,0.0,48,0.00,,---,0.00,9.00,VWS V14.01,2013-04-15 23:22:00,
2013-04-15 19:27:00,55.5,36.2,30.30,SW,227,0.0,0.0,48,0.00,,---,0.00,7.00,VWS V14.01,2013-04-15 23:27:00,
2013-04-15 19:30:00,55.1,36.8,30.30,SW,227,0.0,0.0,50,0.00,,---,0.00,0.00,VWS V14.01,2013-04-15 23:30:00,
2013-04-15 19:32:00,55.3,36.5,30.30,SW,227,0.0,0.0,49,0.00,,---,0.00,0.00,VWS V14.01,2013-04-15 23:32:00,
2013-04-15 19:37:00,54.9,36.1,30.30,SW,227,0.0,0.0,49,0.00,,---,0.00,0.00,VWS V14.01,2013-04-15 23:37:00,
2013-04-15 19:42:00,54.6,35.8,30.30,SW,227,0.0,0.0,49,0.00,,---,0.00,0.00,VWS V14.01,2013-04-15 23:42:00,
2013-04-15 19:47:00,54.3,36.1,30.31,SW,227,0.0,0.0,50,0.00,,---,0.00,0.00,VWS V14.01,2013-04-15 23:47:00,
2013-04-15 19:52:00,53.9,35.7,30.31,SW,227,0.0,1.0,50,0.00,,---,0.00,0.00,VWS V14.01,2013-04-15 23:52:00,
2013-04-15 19:57:00,53.7,36.5,30.32,SW,227,0.0,1.0,52,0.00,,---,0.00,0.00,VWS V14.01,2013-04-15 23:57:00,
2013-04-15 20:00:00,53.0,35.9,30.32,SW,227,0.0,1.0,52,0.00,,---,0.00,0.00,VWS V14.01,2013-04-16 00:00:00,
2013-04-15 20:02:00,53.3,36.1,30.32,SW,227,0.0,1.0,52,0.00,,---,0.00,0.00,VWS V14.01,2013-04-16 00:02:00,
2013-04-15 20:07:00,52.9,36.2,30.32,SW,227,0.0,0.0,53,0.00,,---,0.00,0.00,VWS V14.01,2013-04-16 00:07:00,
2013-04-15 20:12:00,52.7,36.1,30.32,SW,227,0.0,0.0,53,0.00,,---,0.00,0.00,VWS V14.01,2013-04-16 00:12:00,
2013-04-15 20:17:00,52.4,35.8,30.32,SW,227,0.0,0.0,53,0.00,,---,0.00,0.00,VWS V14.01,2013-04-16 00:17:00,
2013-04-15 20:22:00,52.2,36.1,30.32,SW,227,0.0,1.0,54,0.00,,---,0.00,0.00,VWS V14.01,2013-04-16 00:22:00,
2013-04-15 20:27:00,51.9,36.3,30.32,SW,227,0.0,1.0,55,0.00,,---,0.00,0.00,VWS V14.01,2013-04-16 00:27:00,
2013-04-15 20:30:00,51.5,36.3,30.33,SW,227,0.0,2.0,56,0.00,,---,0.00,0.00,VWS V14.01,2013-04-16 00:30:00,
2013-04-15 20:32:00,51.6,36.4,30.32,SW,227,0.0,2.0,56,0.00,,---,0.00,0.00,VWS V14.01,2013-04-16 00:32:00,
2013-04-15 20:37:00,51.4,36.2,30.32,SW,227,0.0,1.0,56,0.00,,---,0.00,0.00,VWS V14.01,2013-04-16 00:37:00,
2013-04-15 20:42:00,51.2,36.5,30.33,SW,227,3.0,3.0,57,0.00,,---,0.00,0.00,VWS V14.01,2013-04-16 00:42:00,
2013-04-15 20:47:00,51.1,36.4,30.33,SW,227,0.0,3.0,57,0.00,,---,0.00,0.00,VWS V14.01,2013-04-16 00:47:00,
2013-04-15 20:52:00,51.0,36.3,30.33,SW,227,0.0,3.0,57,0.00,,---,0.00,0.00,VWS V14.01,2013-04-16 00:52:00,
2013-04-15 20:57:00,51.0,36.3,30.33,SW,235,3.0,4.0,57,0.00,,---,0.00,0.00,VWS V14.01,2013-04-16 00:57:00,
2013-04-15 21:00:00,50.9,35.8,30.33,SSW,211,0.0,4.0,56,0.00,,---,0.00,0.00,VWS V14.01,2013-04-16 01:00:00,
2013-04-15 21:02:00,51.0,36.3,30.33,SW,221,0.0,4.0,57,0.00,,---,0.00,0.00,VWS V14.01,2013-04-16 01:02:00,
2013-04-15 21:07:00,50.9,35.8,30.33,SSW,198,0.0,5.0,56,0.00,,---,0.00,0.00,VWS V14.01,2013-04-16 01:07:00,
2013-04-15 21:12:00,50.8,35.7,30.34,SSE,160,0.0,6.0,56,0.00,,---,0.00,0.00,VWS V14.01,2013-04-16 01:12:00,
2013-04-15 21:17:00,50.5,35.8,30.34,SSW,208,0.0,6.0,57,0.00,,---,0.00,0.00,VWS V14.01,2013-04-16 01:17:00,
2013-04-15 21:22:00,50.3,35.7,30.34,WSW,238,0.0,6.0,57,0.00,,---,0.00,0.00,VWS V14.01,2013-04-16 01:22:00,
2013-04-15 21:27:00,50.0,35.4,30.35,South,182,0.0,6.0,57,0.00,,---,0.00,0.00,VWS V14.01,2013-04-16 01:27:00,
2013-04-15 21:30:00,49.6,35.4,30.35,SSE,157,0.0,6.0,58,0.00,,---,0.00,0.00,VWS V14.01,2013-04-16 01:30:00,
2013-04-15 21:32:00,49.8,35.2,30.35,SSE,157,2.0,6.0,57,0.00,,---,0.00,0.00,VWS V14.01,2013-04-16 01:32:00,
2013-04-15 21:37:00,49.5,35.3,30.35,SSE,157,0.0,2.0,58,0.00,,---,0.00,0.00,VWS V14.01,2013-04-16 01:37:00,
2013-04-15 21:42:00,49.3,35.2,30.35,SSE,157,0.0,2.0,58,0.00,,---,0.00,0.00,VWS V14.01,2013-04-16 01:42:00,
2013-04-15 21:47:00,49.0,34.9,30.36,NE,34,0.0,2.0,58,0.00,,---,0.00,0.00,VWS V14.01,2013-04-16 01:47:00,
2013-04-15 21:52:00,48.8,34.7,30.36,WSW,252,0.0,3.0,58,0.00,,---,0.00,0.00,VWS V14.01,2013-04-16 01:52:00,
2013-04-15 21:57:00,48.7,34.6,30.36,WSW,248,0.0,4.0,58,0.00,,---,0.00,0.00,VWS V14.01,2013-04-16 01:57:00,
2013-04-15 22:00:00,48.5,34.4,30.36,WSW,258,0.0,4.0,58,0.00,,---,0.00,0.00,VWS V14.01,2013-04-16 02:00:00,
2013-04-15 22:02:00,48.5,34.4,30.36,WSW,258,0.0,4.0,58,0.00,,---,0.00,0.00,VWS V14.01,2013-04-16 02:02:00,
2013-04-15 22:07:00,48.4,34.3,30.36,WSW,258,0.0,1.0,58,0.00,,---,0.00,0.00,VWS V14.01,2013-04-16 02:07:00,
2013-04-15 22:12:00,48.2,34.1,30.36,WSW,258,0.0,1.0,58,0.00,,---,0.00,0.00,VWS V14.01,2013-04-16 02:12:00,
2013-04-15 22:17:00,48.0,34.4,30.36,WSW,258,0.0,1.0,59,0.00,,---,0.00,0.00,VWS V14.01,2013-04-16 02:17:00,
2013-04-15 22:22:00,47.8,34.2,30.36,WSW,258,0.0,1.0,59,0.00,,---,0.00,0.00,VWS V14.01,2013-04-16 02:22:00,
2013-04-15 22:27:00,47.6,34.0,30.36,ESE,114,0.0,1.0,59,0.00,,---,0.00,0.00,VWS V14.01,2013-04-16 02:27:00,
2013-04-15 22:30:00,47.4,33.8,30.37,WNW,286,0.0,2.0,59,0.00,,---,0.00,0.00,VWS V14.01,2013-04-16 02:30:00,
2013-04-15 22:32:00,47.4,33.8,30.36,ESE,114,0.0,1.0,59,0.00,,---,0.00,0.00,VWS V14.01,2013-04-16 02:32:00,
2013-04-15 22:37:00,47.3,33.7,30.37,WNW,286,0.0,0.0,59,0.00,,---,0.00,0.00,VWS V14.01,2013-04-16 02:37:00,
2013-04-15 22:42:00,47.2,33.6,30.37,NNE,26,0.0,2.0,59,0.00,,---,0.00,0.00,VWS V14.01,2013-04-16 02:42:00,
2013-04-15 22:47:00,47.1,33.5,30.37,NNE,26,0.0,2.0,59,0.00,,---,0.00,0.00,VWS V14.01,2013-04-16 02:47:00,
2013-04-15 22:52:00,47.0,33.4,30.37,WSW,254,0.0,3.0,59,0.00,,---,0.00,0.00,VWS V14.01,2013-04-16 02:52:00,
2013-04-15 22:57:00,46.9,33.3,30.37,SSE,149,0.0,3.0,59,0.00,,---,0.00,0.00,VWS V14.01,2013-04-16 02:57:00,
2013-04-15 23:00:00,46.7,33.2,30.37,ESE,113,0.0,4.0,59,0.00,,---,0.00,0.00,VWS V14.01,2013-04-16 03:00:00,
2013-04-15 23:02:00,46.8,33.2,30.37,SSE,149,0.0,3.0,59,0.00,,---,0.00,0.00,VWS V14.01,2013-04-16 03:02:00,
2013-04-15 23:07:00,46.6,33.0,30.37,ESE,113,0.0,0.0,59,0.00,,---,0.00,0.00,VWS V14.01,2013-04-16 03:07:00,
2013-04-15 23:12:00,46.3,33.2,30.37,East,99,2.0,2.0,60,0.00,,---,0.00,0.00,VWS V14.01,2013-04-16 03:12:00,
2013-04-15 23:23:00,46.3,33.2,30.37,East,99,0.0,2.0,60,0.00,,---,0.00,0.00,VWS V14.01,2013-04-16 03:23:00,
2013-04-15 23:28:00,45.7,33.0,30.37,ESE,123,0.0,3.0,61,0.00,,---,0.00,0.00,VWS V14.01,2013-04-16 03:28:00,
2013-04-15 23:30:00,45.5,33.2,30.37,ESE,123,0.0,3.0,62,0.00,,---,0.00,0.00,VWS V14.01,2013-04-16 03:30:00,
2013-04-15 23:33:00,45.6,32.9,30.37,ESE,123,0.0,3.0,61,0.00,,---,0.00,0.00,VWS V14.01,2013-04-16 03:33:00,
2013-04-15 23:38:00,45.3,33.1,30.37,ESE,123,0.0,0.0,62,0.00,,---,0.00,0.00,VWS V14.01,2013-04-16 03:38:00,
2013-04-15 23:43:00,45.1,32.9,30.37,ESE,123,0.0,0.0,62,0.00,,---,0.00,0.00,VWS V14.01,2013-04-16 03:43:00,
2013-04-15 23:48:00,45.0,33.6,30.37,ESE,123,0.0,1.0,64,0.00,,---,0.00,0.00,VWS V14.01,2013-04-16 03:48:00,
2013-04-15 23:53:00,44.9,33.1,30.37,ESE,123,0.0,1.0,63,0.00,,---,0.00,0.00,VWS V14.01,2013-04-16 03:53:00,
2013-04-15 23:58:00,44.9,33.1,30.37,East,90,0.0,3.0,63,0.00,,---,0.00,0.00,VWS V14.01,2013-04-16 03:58:00,